METAR Data
IDs: Format: Raw Decoded Include TAF

Data at: 0236 UTC 29 Nov 2020

METAR for:KDNS (Denison Muni, IA, US)
Text:KDNS 290235Z AUTO 18004KT 10SM CLR 05/00 A2998 RMK AO2
Temperature: 5.0°C ( 41°F)
Dewpoint: 0.0°C ( 32°F) [RH = 70%]
Pressure (altimeter):29.98 inches Hg (1015.3 mb)
Winds:from the S (180 degrees) at 5 MPH (4 knots; 2.1 m/s)
Visibility:10 or more sm (16+ km)
Ceiling:at least 12,000 feet AGL
Clouds:sky clear below 12,000 feet AGL
QC Flag:automated observation with no human augmentation